createdAt,value
2023-02-19T00:01:22.304Z,-8.93
2023-02-19T00:06:29.099Z,-8.92
2023-02-19T00:11:33.850Z,-8.89
2023-02-19T00:16:39.881Z,-8.86
2023-02-19T00:21:44.680Z,-8.84
2023-02-19T00:26:49.148Z,-8.82
2023-02-19T00:31:52.545Z,-8.77
2023-02-19T00:36:57.392Z,-8.74
2023-02-19T00:42:01.160Z,-8.70
2023-02-19T00:47:04.322Z,-8.66
2023-02-19T00:52:08.951Z,-8.66
2023-02-19T00:57:12.197Z,-8.68
2023-02-19T01:02:15.366Z,-8.68
2023-02-19T01:07:20.586Z,-8.79
2023-02-19T01:12:25.834Z,-8.70
2023-02-19T01:17:29.275Z,-8.69
2023-02-19T01:22:33.978Z,-8.70
2023-02-19T01:27:37.281Z,-8.72
2023-02-19T01:32:40.631Z,-8.73
2023-02-19T01:37:45.292Z,-8.75
2023-02-19T01:42:50.293Z,-8.77
2023-02-19T01:48:10.283Z,-8.82
2023-02-19T01:53:18.702Z,-8.83
2023-02-19T01:58:22.090Z,-8.82
2023-02-19T02:03:26.265Z,-8.81
2023-02-19T02:08:50.463Z,-8.84
2023-02-19T02:13:56.261Z,-8.86
2023-02-19T02:19:07.219Z,-8.87
2023-02-19T02:24:29.985Z,-8.86
2023-02-19T02:30:07.315Z,-8.87
2023-02-19T02:35:19.351Z,-8.90
2023-02-19T02:40:22.971Z,-8.86
2023-02-19T02:45:38.157Z,-8.84
2023-02-19T02:50:45.629Z,-8.80
2023-02-19T02:55:53.322Z,-8.78
2023-02-19T03:01:18.126Z,-8.81
2023-02-19T03:06:25.457Z,-8.86
2023-02-19T03:11:49.667Z,-8.84
2023-02-19T03:17:18.466Z,-8.88
2023-02-19T03:22:26.737Z,-8.89
2023-02-19T03:27:33.537Z,-8.88
2023-02-19T03:32:41.547Z,-8.87
2023-02-19T03:37:48.374Z,-8.85
2023-02-19T03:42:57.957Z,-8.84
2023-02-19T03:48:14.985Z,-8.85
2023-02-19T03:53:28.937Z,-8.82
2023-02-19T03:58:36.313Z,-8.79
2023-02-19T04:03:44.291Z,-8.76
2023-02-19T04:08:52.026Z,-8.77
2023-02-19T04:13:59.892Z,-8.77
2023-02-19T04:19:09.111Z,-8.78
2023-02-19T04:24:15.697Z,-8.78
2023-02-19T04:29:18.952Z,-8.79
2023-02-19T04:34:23.585Z,-8.80
2023-02-19T04:39:26.998Z,-8.81
2023-02-19T04:44:30.272Z,-8.78
2023-02-19T04:49:35.275Z,-8.79
2023-02-19T04:54:38.731Z,-8.74
2023-02-19T04:59:42.071Z,-8.72
2023-02-19T05:04:46.687Z,-8.70
2023-02-19T05:09:49.943Z,-8.63
2023-02-19T05:14:53.365Z,-8.58
2023-02-19T05:19:57.960Z,-8.49
2023-02-19T05:25:01.168Z,-8.41
2023-02-19T05:30:04.635Z,-8.35
2023-02-19T05:35:09.934Z,-8.23
2023-02-19T05:40:13.410Z,-8.16
2023-02-19T05:45:16.741Z,-8.22
2023-02-19T05:50:21.339Z,-8.16
2023-02-19T05:55:24.438Z,-8.05
2023-02-19T06:00:27.979Z,-7.93
2023-02-19T06:05:32.697Z,-7.85
2023-02-19T06:10:37.387Z,-7.81
2023-02-19T06:15:41.165Z,-7.74
2023-02-19T06:20:46.019Z,-7.67
2023-02-19T06:25:49.389Z,-7.58
2023-02-19T06:30:52.834Z,-7.52
2023-02-19T06:36:00.400Z,-7.38
2023-02-19T06:41:04.512Z,-7.27
2023-02-19T06:46:09.424Z,-7.03
2023-02-19T06:51:15.922Z,-7.01
2023-02-19T06:56:25.846Z,-6.82
2023-02-19T07:01:30.686Z,-6.70
2023-02-19T07:06:36.146Z,-6.72
2023-02-19T07:11:41.042Z,-6.70
2023-02-19T07:16:44.786Z,-6.78
2023-02-19T07:21:49.529Z,-6.76
2023-02-19T07:26:52.844Z,-6.73
2023-02-19T07:31:56.201Z,-6.75
2023-02-19T07:37:00.783Z,-6.68
2023-02-19T07:42:04.153Z,-6.66
2023-02-19T07:47:07.360Z,-6.67
2023-02-19T07:52:12.010Z,-6.57
2023-02-19T07:57:15.167Z,-6.44
2023-02-19T08:06:33.309Z,-6.47
2023-02-19T08:11:54.590Z,-6.39
2023-02-19T08:16:58.135Z,-6.38
2023-02-19T08:22:02.832Z,-6.34
2023-02-19T08:27:06.040Z,-6.32
2023-02-19T08:32:09.429Z,-6.30
2023-02-19T08:37:14.490Z,-6.31
2023-02-19T08:42:17.912Z,-6.30
2023-02-19T08:47:21.178Z,-6.20
2023-02-19T08:52:25.985Z,-6.01
2023-02-19T08:57:29.705Z,-6.03
2023-02-19T09:02:32.935Z,-5.98
2023-02-19T09:07:37.573Z,-5.87
2023-02-19T09:12:41.511Z,-5.70
2023-02-19T09:17:45.026Z,-5.70
2023-02-19T09:22:49.743Z,-5.56
2023-02-19T09:27:56.309Z,-5.30
2023-02-19T09:32:59.512Z,-5.17
2023-02-19T09:38:04.167Z,-4.84
2023-02-19T09:43:09.103Z,-4.72
2023-02-19T09:48:13.982Z,-4.78
2023-02-19T09:53:23.045Z,-5.06
2023-02-19T09:58:30.267Z,-5.22
2023-02-19T10:03:39.315Z,-5.31
2023-02-19T10:08:46.870Z,-5.26
2023-02-19T10:13:54.553Z,-5.25
2023-02-19T10:18:58.306Z,-5.24
2023-02-19T10:24:05.846Z,-5.23
2023-02-19T10:29:10.880Z,-5.09
2023-02-19T10:34:22.291Z,-4.97
2023-02-19T10:39:42.359Z,-4.10
2023-02-19T10:44:47.740Z,-3.23
2023-02-19T10:49:52.534Z,-2.75
2023-02-19T10:55:14.817Z,-2.65
2023-02-19T11:00:24.377Z,-2.13
2023-02-19T11:05:27.845Z,-1.93
2023-02-19T11:10:38.685Z,-2.19
2023-02-19T11:15:42.692Z,-2.38
2023-02-19T11:20:51.243Z,-3.39
2023-02-19T11:25:57.795Z,-3.45
2023-02-19T11:31:32.443Z,-2.97
2023-02-19T11:36:37.263Z,-2.51
2023-02-19T11:42:16.561Z,-2.28
2023-02-19T11:47:49.590Z,-2.00
2023-02-19T11:53:05.661Z,-1.86
2023-02-19T11:58:34.364Z,-1.66
2023-02-19T12:03:57.053Z,-2.14
2023-02-19T12:09:34.690Z,-2.36
2023-02-19T12:14:58.275Z,-3.23
2023-02-19T12:20:06.790Z,-4.11
2023-02-19T12:25:42.043Z,-4.51
2023-02-19T12:31:04.082Z,-4.61
2023-02-19T12:36:18.968Z,-4.24
2023-02-19T12:41:33.937Z,-4.15
2023-02-19T12:46:41.069Z,-4.23
2023-02-19T12:51:49.004Z,-4.53
2023-02-19T12:56:59.289Z,-4.72
2023-02-19T13:02:15.066Z,-4.88
2023-02-19T13:07:22.488Z,-5.08
2023-02-19T13:12:30.405Z,-5.19
2023-02-19T13:17:41.471Z,-5.48
2023-02-19T13:23:05.447Z,-5.66
2023-02-19T13:28:27.136Z,-5.78
2023-02-19T13:33:45.196Z,-5.91
2023-02-19T13:38:50.385Z,-6.05
2023-02-19T13:44:01.853Z,-6.04
2023-02-19T13:49:41.228Z,-6.03
2023-02-19T13:54:44.505Z,-6.07
2023-02-19T13:59:48.444Z,-6.19
2023-02-19T14:04:56.102Z,-6.19
2023-02-19T14:10:01.886Z,-6.33
2023-02-19T14:15:51.388Z,-6.45
2023-02-19T14:21:09.083Z,-6.61
2023-02-19T14:26:13.002Z,-6.64
2023-02-19T14:31:31.417Z,-6.72
2023-02-19T14:36:49.002Z,-6.78
2023-02-19T14:41:54.331Z,-6.84
2023-02-19T14:47:01.977Z,-6.88
2023-02-19T14:52:12.171Z,-6.94
2023-02-19T14:57:20.041Z,-6.96
2023-02-19T15:02:26.061Z,-6.97
2023-02-19T15:07:34.721Z,-7.26
2023-02-19T15:12:47.244Z,-6.99
2023-02-19T15:17:52.542Z,-7.03
2023-02-19T15:22:59.747Z,-7.11
2023-02-19T15:28:21.421Z,-7.13
2023-02-19T15:33:24.911Z,-7.11
2023-02-19T15:38:30.083Z,-7.10
2023-02-19T15:43:41.873Z,-7.09
2023-02-19T15:48:50.406Z,-7.09
2023-02-19T15:54:03.360Z,-7.07
2023-02-19T15:59:14.775Z,-7.06
2023-02-19T16:04:19.841Z,-7.07
2023-02-19T16:09:29.164Z,-7.06
2023-02-19T16:14:34.043Z,-7.04
2023-02-19T16:19:47.665Z,-7.08
2023-02-19T16:24:56.357Z,-7.09
2023-02-19T16:30:00.503Z,-7.13
2023-02-19T16:35:03.802Z,-7.18
2023-02-19T16:40:41.003Z,-7.14
2023-02-19T16:45:47.434Z,-7.14
2023-02-19T16:50:51.352Z,-7.13
2023-02-19T16:55:54.762Z,-7.14
2023-02-19T17:00:59.702Z,-7.17
2023-02-19T17:06:03.124Z,-7.17
2023-02-19T17:11:09.136Z,-7.13
2023-02-19T17:16:19.978Z,-7.09
2023-02-19T17:21:25.221Z,-7.09
2023-02-19T17:26:31.283Z,-7.17
2023-02-19T17:31:36.376Z,-7.11
2023-02-19T17:36:40.602Z,-7.12
2023-02-19T17:41:44.651Z,-7.14
2023-02-19T17:46:49.734Z,-7.18
2023-02-19T17:51:52.939Z,-7.22
2023-02-19T17:56:56.566Z,-7.21
2023-02-19T18:02:03.306Z,-7.27
2023-02-19T18:07:06.477Z,-7.30
2023-02-19T18:12:10.477Z,-7.29
2023-02-19T18:17:16.382Z,-7.21
2023-02-19T18:22:19.805Z,-7.35
2023-02-19T18:27:23.715Z,-7.17
2023-02-19T18:32:29.061Z,-7.13
2023-02-19T18:37:34.012Z,-7.08
2023-02-19T18:42:37.557Z,-7.11
2023-02-19T18:47:42.533Z,-7.12
2023-02-19T18:52:47.178Z,-7.19
2023-02-19T18:57:50.753Z,-7.24
2023-02-19T19:02:59.616Z,-7.25
2023-02-19T19:08:02.878Z,-7.27
2023-02-19T19:13:06.728Z,-7.23
2023-02-19T19:18:11.638Z,-7.22
2023-02-19T19:23:15.220Z,-7.18
2023-02-19T19:28:18.632Z,-7.16
2023-02-19T19:33:23.405Z,-7.08
2023-02-19T19:38:26.909Z,-7.05
2023-02-19T19:43:31.264Z,-7.02
2023-02-19T19:48:36.222Z,-6.97
2023-02-19T19:53:39.563Z,-6.96
2023-02-19T19:58:43.034Z,-6.93
2023-02-19T20:03:47.718Z,-6.90
2023-02-19T20:08:50.959Z,-6.87
2023-02-19T20:13:54.200Z,-6.87
2023-02-19T20:18:59.044Z,-6.84
2023-02-19T20:24:03.166Z,-6.82
2023-02-19T20:29:07.239Z,-6.77
2023-02-19T20:34:11.944Z,-6.73
2023-02-19T20:39:16.424Z,-6.74
2023-02-19T20:44:20.763Z,-6.71
2023-02-19T20:49:27.500Z,-6.66
2023-02-19T20:54:33.237Z,-6.66
2023-02-19T20:59:38.687Z,-6.75
2023-02-19T21:04:44.071Z,-6.60
2023-02-19T21:09:47.452Z,-6.59
2023-02-19T21:14:50.875Z,-6.57
2023-02-19T21:19:55.673Z,-6.50
2023-02-19T21:24:59.110Z,-6.47
2023-02-19T21:30:02.477Z,-6.42
2023-02-19T21:35:09.120Z,-6.42
2023-02-19T21:40:13.860Z,-6.38
2023-02-19T21:45:17.590Z,-6.32
2023-02-19T21:50:22.717Z,-6.31
2023-02-19T21:55:25.944Z,-6.29
2023-02-19T22:00:29.232Z,-6.26
2023-02-19T22:05:34.140Z,-6.25
2023-02-19T22:10:39.431Z,-6.28
2023-02-19T22:15:42.804Z,-6.33
2023-02-19T22:20:47.740Z,-6.28
2023-02-19T22:25:51.400Z,-6.26
2023-02-19T22:30:54.816Z,-6.21
2023-02-19T22:35:59.609Z,-6.18
2023-02-19T22:41:04.172Z,-6.26
2023-02-19T22:46:11.752Z,-6.16
2023-02-19T22:51:17.994Z,-6.22
2023-02-19T22:56:23.095Z,-6.17
2023-02-19T23:01:26.688Z,-6.17
2023-02-19T23:06:33.468Z,-6.56
2023-02-19T23:11:39.320Z,-6.16
2023-02-19T23:16:42.798Z,-6.14
2023-02-19T23:21:47.437Z,-6.12
2023-02-19T23:26:52.880Z,-6.43
2023-02-19T23:31:56.530Z,-6.30
2023-02-19T23:37:02.448Z,-6.14
2023-02-19T23:42:05.744Z,-6.11
2023-02-19T23:47:08.938Z,-6.11
2023-02-19T23:52:13.491Z,-6.22
2023-02-19T23:57:16.949Z,-6.02
